Time;durP1;ratioP1;P1;durP2;ratioP2;P2;SDS_P1;SDS_P2;PMS_P1;PMS_P2;Temp;Humidity;BMP_temperature;BMP_pressure;BME280_temperature;BME280_humidity;BME280_pressure;Samples;Min_cycle;Max_cycle;Signal;HPM_P1;HPM_P2
2023/06/24 00:00:46;;;;;;;4.15;2.92;;;19.70;92.30;;;;;;5026513;28;20504;-73
2023/06/24 00:03:12;;;;;;;5.15;3.20;;;19.70;92.40;;;;;;5027789;28;20099;-73
2023/06/24 00:05:38;;;;;;;7.18;3.78;;;19.60;92.60;;;;;;5021645;28;20043;-73
2023/06/24 00:08:07;;;;;;;6.20;3.50;;;19.60;92.70;;;;;;5023616;28;20021;-73
2023/06/24 00:10:33;;;;;;;4.78;3.17;;;19.60;93.10;;;;;;5027583;28;20592;-73
2023/06/24 00:13:01;;;;;;;4.43;3.05;;;19.50;92.80;;;;;;5030302;28;20045;-73
2023/06/24 00:15:27;;;;;;;4.55;3.20;;;19.50;92.90;;;;;;5025036;28;20039;-73
2023/06/24 00:17:52;;;;;;;3.65;2.97;;;19.50;93.00;;;;;;5030320;28;20034;-73
2023/06/24 00:20:19;;;;;;;4.57;2.70;;;19.50;93.20;;;;;;5021724;28;20338;-73
2023/06/24 00:22:48;;;;;;;5.93;2.78;;;19.40;93.30;;;;;;5026264;28;20460;-73
2023/06/24 00:25:14;;;;;;;5.43;3.20;;;19.40;93.50;;;;;;5027021;28;20017;-73
2023/06/24 00:27:41;;;;;;;4.53;2.70;;;19.30;93.60;;;;;;5026061;28;20018;-73
2023/06/24 00:30:07;;;;;;;3.55;2.63;;;19.30;93.80;;;;;;5021703;28;20020;-73
2023/06/24 00:32:33;;;;;;;4.30;2.92;;;19.30;94.00;;;;;;5021860;28;20025;-73
2023/06/24 00:34:59;;;;;;;5.63;3.10;;;19.20;94.20;;;;;;5021778;28;20026;-73
2023/06/24 00:37:25;;;;;;;4.80;3.05;;;19.20;94.30;;;;;;5025508;28;20349;-73
2023/06/24 00:39:51;;;;;;;6.60;2.92;;;19.20;94.60;;;;;;5030326;28;20047;-73
2023/06/24 00:42:17;;;;;;;5.00;2.97;;;19.20;94.80;;;;;;5026539;28;20013;-73
2023/06/24 00:44:43;;;;;;;5.00;3.05;;;19.20;95.00;;;;;;5021872;28;20143;-73
2023/06/24 00:47:09;;;;;;;4.45;3.13;;;19.10;95.20;;;;;;5028629;28;20022;-73
2023/06/24 00:49:35;;;;;;;7.38;3.10;;;19.10;95.50;;;;;;5022647;28;20103;-73
2023/06/24 00:52:01;;;;;;;6.13;3.05;;;19.10;95.70;;;;;;5021808;28;20022;-73
2023/06/24 00:54:30;;;;;;;4.70;2.92;;;19.10;96.00;;;;;;5028380;28;20056;-73
2023/06/24 00:56:57;;;;;;;5.40;3.08;;;19.10;96.40;;;;;;5024688;28;20072;-73
2023/06/24 00:59:23;;;;;;;4.75;3.20;;;19.00;96.90;;;;;;5022334;28;20018;-73
2023/06/24 01:01:52;;;;;;;6.45;3.60;;;19.00;97.30;;;;;;5026717;28;20025;-73
2023/06/24 01:04:19;;;;;;;4.55;3.20;;;19.00;97.70;;;;;;5023636;28;20479;-73
2023/06/24 01:06:45;;;;;;;5.18;3.38;;;19.00;98.30;;;;;;5026984;28;20242;-73
2023/06/24 01:09:12;;;;;;;5.70;3.53;;;18.90;98.80;;;;;;5026926;28;20026;-73
2023/06/24 01:11:38;;;;;;;7.00;3.45;;;18.90;99.80;;;;;;5018597;28;20014;-73
2023/06/24 01:14:05;;;;;;;7.63;3.42;;;18.90;99.90;;;;;;5023851;28;20738;-73
2023/06/24 01:16:59;;;;;;;6.00;3.33;;;18.90;99.90;;;;;;5020995;28;20029;-73
2023/06/24 01:20:16;;;;;;;5.32;3.38;;;18.90;99.90;;;;;;5021664;28;20037;-73
2023/06/24 01:22:54;;;;;;;6.15;3.38;;;18.90;99.90;;;;;;5018794;28;20409;-73
2023/06/24 01:25:50;;;;;;;5.03;3.50;;;18.80;99.90;;;;;;5027851;28;20028;-73
2023/06/24 01:28:21;;;;;;;6.35;3.70;;;18.80;99.90;;;;;;5027548;28;20049;-73
2023/06/24 01:31:06;;;;;;;5.40;3.55;;;18.80;99.90;;;;;;5021814;28;20025;-73
2023/06/24 01:33:59;;;;;;;5.75;3.72;;;18.80;99.90;;;;;;5028054;28;20037;-73
2023/06/24 01:36:28;;;;;;;7.10;3.38;;;18.80;99.90;;;;;;5025521;28;20068;-73
2023/06/24 01:39:02;;;;;;;9.43;4.13;;;18.70;99.90;;;;;;5020843;28;20033;-73
2023/06/24 01:41:39;;;;;;;5.22;3.40;;;18.80;99.90;;;;;;5019076;28;20021;-73
2023/06/24 01:44:09;;;;;;;6.18;3.63;;;18.80;99.90;;;;;;5022628;28;20022;-73
2023/06/24 01:46:37;;;;;;;7.07;3.90;;;18.80;99.90;;;;;;5028801;28;20056;-73
2023/06/24 01:49:06;;;;;;;5.63;3.63;;;18.80;99.90;;;;;;5023494;28;20059;-73
2023/06/24 01:51:34;;;;;;;6.10;4.18;;;18.80;99.90;;;;;;5021754;28;20068;-73
2023/06/24 01:54:07;;;;;;;7.60;4.18;;;18.80;99.90;;;;;;5019262;28;20104;-73
2023/06/24 01:56:35;;;;;;;8.43;4.30;;;18.80;99.90;;;;;;5023573;28;20021;-73
2023/06/24 01:59:03;;;;;;;9.93;3.88;;;18.80;99.90;;;;;;5026074;28;20465;-73
2023/06/24 02:01:32;;;;;;;5.88;4.35;;;18.80;99.90;;;;;;5026748;28;20416;-76
2023/06/24 02:04:00;;;;;;;6.43;3.67;;;18.80;99.90;;;;;;5019718;28;20087;-73
2023/06/24 02:06:28;;;;;;;7.20;4.05;;;18.80;99.90;;;;;;5018640;28;20208;-73
2023/06/24 02:08:55;;;;;;;7.88;4.13;;;18.80;99.90;;;;;;5019329;28;20018;-73
2023/06/24 02:11:23;;;;;;;7.05;3.78;;;18.80;99.90;;;;;;5015344;28;20097;-73
2023/06/24 02:13:50;;;;;;;8.23;4.03;;;18.80;99.90;;;;;;5022276;28;20519;-73
2023/06/24 02:16:16;;;;;;;6.68;4.10;;;18.80;99.90;;;;;;5020344;28;20183;-73
2023/06/24 02:18:44;;;;;;;7.78;4.05;;;18.80;99.90;;;;;;5026077;28;20040;-73
2023/06/24 02:21:10;;;;;;;9.25;4.50;;;18.70;99.90;;;;;;5025716;28;20041;-73
2023/06/24 02:23:37;;;;;;;8.43;4.30;;;18.70;99.90;;;;;;5021212;28;20033;-73
2023/06/24 02:26:05;;;;;;;8.93;4.43;;;18.70;99.90;;;;;;5021492;28;20014;-73
2023/06/24 02:28:33;;;;;;;8.82;4.38;;;18.70;99.90;;;;;;5028099;28;20026;-73
2023/06/24 02:30:59;;;;;;;7.93;4.32;;;18.70;99.90;;;;;;5028811;28;20109;-73
2023/06/24 02:33:26;;;;;;;9.32;4.15;;;18.70;99.90;;;;;;5021799;28;20041;-73
2023/06/24 02:35:52;;;;;;;8.15;4.45;;;18.70;99.90;;;;;;5014844;28;20383;-73
2023/06/24 02:38:18;;;;;;;10.25;4.82;;;18.60;99.90;;;;;;5026670;28;20397;-73
2023/06/24 02:40:45;;;;;;;8.48;4.28;;;18.60;99.90;;;;;;5029358;28;20092;-73
2023/06/24 02:43:11;;;;;;;8.52;4.60;;;18.60;99.90;;;;;;5029162;28;20026;-73
2023/06/24 02:45:38;;;;;;;10.15;4.95;;;18.60;99.90;;;;;;5028832;28;20101;-73
2023/06/24 02:48:06;;;;;;;7.30;4.28;;;18.60;99.90;;;;;;5023714;28;20101;-73
2023/06/24 02:50:33;;;;;;;11.00;4.93;;;18.60;99.90;;;;;;5026382;28;20108;-73
2023/06/24 02:52:59;;;;;;;7.18;4.82;;;18.60;99.90;;;;;;5020787;28;20388;-73
2023/06/24 02:55:26;;;;;;;10.32;5.20;;;18.60;99.90;;;;;;5030223;28;20104;-73
2023/06/24 02:57:53;;;;;;;8.50;4.95;;;18.60;99.90;;;;;;5028129;28;20040;-73
2023/06/24 03:00:19;;;;;;;14.57;5.30;;;18.60;99.90;;;;;;5023291;28;20018;-71
2023/06/24 03:02:45;;;;;;;6.28;5.07;;;18.50;99.90;;;;;;5029498;28;20096;-71
2023/06/24 03:05:11;;;;;;;7.45;5.20;;;18.50;99.90;;;;;;5029246;28;20028;-72
2023/06/24 03:07:38;;;;;;;9.88;5.60;;;18.50;99.90;;;;;;5033100;28;20365;-74
2023/06/24 03:10:05;;;;;;;11.52;5.72;;;18.40;99.90;;;;;;5032784;28;20026;-73
2023/06/24 03:12:31;;;;;;;9.45;6.03;;;18.40;99.90;;;;;;5033106;28;20112;-73
2023/06/24 03:14:57;;;;;;;7.65;5.90;;;18.40;99.90;;;;;;5024983;28;20056;-73
2023/06/24 03:17:24;;;;;;;10.20;5.38;;;18.40;99.90;;;;;;5023726;28;20423;-73
2023/06/24 03:19:50;;;;;;;12.10;5.80;;;18.40;99.90;;;;;;5025385;28;20523;-73
2023/06/24 03:22:17;;;;;;;14.30;5.82;;;18.40;99.90;;;;;;5019505;28;20026;-73
2023/06/24 03:24:43;;;;;;;13.27;6.03;;;18.40;99.90;;;;;;5027546;28;20021;-73
2023/06/24 03:27:08;;;;;;;10.07;6.25;;;18.40;99.90;;;;;;5019926;28;20372;-73
2023/06/24 03:29:34;;;;;;;9.80;5.93;;;18.40;99.90;;;;;;5023049;28;20017;-73
2023/06/24 03:32:00;;;;;;;11.60;6.25;;;18.40;99.90;;;;;;5023023;28;20045;-73
2023/06/24 03:34:26;;;;;;;9.80;6.07;;;18.40;99.90;;;;;;5024273;28;20040;-73
2023/06/24 03:36:54;;;;;;;11.38;6.40;;;18.40;99.90;;;;;;5025298;28;20375;-73
2023/06/24 03:39:20;;;;;;;10.35;5.63;;;18.30;99.90;;;;;;5022568;28;20053;-73
2023/06/24 03:41:46;;;;;;;10.18;6.00;;;18.30;99.90;;;;;;5030468;28;20113;-73
2023/06/24 03:44:11;;;;;;;10.05;5.68;;;18.40;99.90;;;;;;5020595;28;20097;-73
2023/06/24 03:46:37;;;;;;;10.48;5.53;;;18.40;99.90;;;;;;5024697;28;20109;-73
2023/06/24 03:49:03;;;;;;;9.82;6.18;;;18.40;99.90;;;;;;5027534;28;20092;-73
2023/06/24 03:51:28;;;;;;;8.85;5.80;;;18.30;99.90;;;;;;5022819;28;20017;-73
2023/06/24 03:53:54;;;;;;;10.02;6.28;;;18.30;99.90;;;;;;5026926;28;20126;-73
2023/06/24 03:56:20;;;;;;;11.98;6.10;;;18.30;99.90;;;;;;5022799;28;20049;-74
2023/06/24 03:58:45;;;;;;;12.48;6.55;;;18.30;99.90;;;;;;5025601;28;20366;-73
2023/06/24 04:01:11;;;;;;;10.50;6.28;;;18.30;99.90;;;;;;5028257;28;20010;-74
2023/06/24 04:03:37;;;;;;;9.10;6.15;;;18.30;99.90;;;;;;5024624;28;20061;-73
2023/06/24 04:06:02;;;;;;;12.93;6.75;;;18.30;99.90;;;;;;5024794;28;20019;-73
2023/06/24 04:08:31;;;;;;;10.50;6.60;;;18.30;99.90;;;;;;5023254;28;20595;-74
2023/06/24 04:10:59;;;;;;;10.35;6.50;;;18.30;99.90;;;;;;5021937;28;20021;-73
2023/06/24 04:13:25;;;;;;;12.57;6.55;;;18.30;99.90;;;;;;5027418;28;20021;-73
2023/06/24 04:15:51;;;;;;;10.15;6.45;;;18.30;99.90;;;;;;5024176;28;20024;-73
2023/06/24 04:18:17;;;;;;;11.13;6.43;;;18.30;99.90;;;;;;5029889;28;20028;-73
2023/06/24 04:20:42;;;;;;;10.00;6.22;;;18.30;99.90;;;;;;5022680;28;20109;-73
2023/06/24 04:23:10;;;;;;;9.23;6.57;;;18.40;99.90;;;;;;5022898;28;20014;-73
2023/06/24 04:25:36;;;;;;;9.23;5.82;;;18.40;99.90;;;;;;5025937;28;20022;-73
2023/06/24 04:28:04;;;;;;;12.52;6.80;;;18.40;99.90;;;;;;5025122;28;20017;-74
2023/06/24 04:30:30;;;;;;;12.15;6.70;;;18.40;99.90;;;;;;5023264;28;20048;-73
2023/06/24 04:32:56;;;;;;;10.15;7.05;;;18.50;99.90;;;;;;5026800;28;20010;-73
2023/06/24 04:35:21;;;;;;;10.40;6.90;;;18.50;99.90;;;;;;5020686;28;20446;-74
2023/06/24 04:37:49;;;;;;;14.80;6.78;;;18.50;99.90;;;;;;5022114;28;20026;-74
2023/06/24 04:40:16;;;;;;;11.93;6.47;;;18.50;99.90;;;;;;5021785;28;20025;-73
2023/06/24 04:42:42;;;;;;;13.35;6.75;;;18.50;99.90;;;;;;5029730;28;20033;-74
2023/06/24 04:45:08;;;;;;;12.88;7.18;;;18.60;99.90;;;;;;5027182;28;20029;-74
2023/06/24 04:47:33;;;;;;;13.10;7.38;;;18.50;99.90;;;;;;5024542;28;20025;-73
2023/06/24 04:49:59;;;;;;;11.82;6.93;;;18.50;99.90;;;;;;5018879;28;20022;-73
2023/06/24 04:52:24;;;;;;;16.75;7.57;;;18.50;99.90;;;;;;5023589;28;20022;-73
2023/06/24 04:54:50;;;;;;;14.18;8.00;;;18.50;99.90;;;;;;5027096;28;20038;-73
2023/06/24 04:57:32;;;;;;;17.45;7.30;;;18.50;99.90;;;;;;5016730;28;20688;-74
2023/06/24 04:59:58;;;;;;;14.43;8.00;;;18.60;99.90;;;;;;5027382;28;20070;-74
2023/06/24 05:02:25;;;;;;;14.00;7.60;;;18.60;99.90;;;;;;5024901;28;20083;-73
2023/06/24 05:04:52;;;;;;;11.40;7.38;;;18.60;99.90;;;;;;5031011;28;20626;-74
2023/06/24 05:07:18;;;;;;;16.02;7.90;;;18.60;99.90;;;;;;5030666;28;20075;-73
2023/06/24 05:09:48;;;;;;;12.50;7.57;;;18.60;99.90;;;;;;5030573;28;20030;-74
2023/06/24 05:12:14;;;;;;;17.23;8.35;;;18.70;99.90;;;;;;5030121;28;20026;-74
2023/06/24 05:14:39;;;;;;;10.00;7.18;;;18.70;99.90;;;;;;5023187;28;20521;-74
2023/06/24 05:17:05;;;;;;;15.77;8.40;;;18.70;99.90;;;;;;5028038;28;20080;-73
2023/06/24 05:19:31;;;;;;;14.10;7.60;;;18.70;99.90;;;;;;5025599;28;20508;-74
2023/06/24 05:21:57;;;;;;;14.10;8.45;;;18.70;99.90;;;;;;5021320;28;20026;-74
2023/06/24 05:24:22;;;;;;;14.63;8.18;;;18.80;99.90;;;;;;5027881;28;20365;-74
2023/06/24 05:26:50;;;;;;;14.35;8.23;;;18.80;99.90;;;;;;5020872;28;20022;-74
2023/06/24 05:29:16;;;;;;;13.52;8.85;;;18.80;99.90;;;;;;5015002;28;20109;-74
2023/06/24 05:31:42;;;;;;;18.00;8.32;;;18.90;99.90;;;;;;5026655;28;20416;-74
2023/06/24 05:34:08;;;;;;;15.73;8.57;;;18.90;99.90;;;;;;5026398;28;20048;-74
2023/06/24 05:36:34;;;;;;;16.60;9.45;;;19.00;99.90;;;;;;5026253;28;20026;-75
2023/06/24 05:39:00;;;;;;;14.18;9.38;;;19.00;99.90;;;;;;5029377;28;20115;-75
2023/06/24 05:41:26;;;;;;;16.98;9.68;;;19.00;99.90;;;;;;5023973;28;20064;-72
2023/06/24 05:44:06;;;;;;;15.95;9.57;;;19.10;99.90;;;;;;5021497;28;20476;-71
2023/06/24 05:46:32;;;;;;;18.50;9.93;;;19.10;99.90;;;;;;5023447;28;20029;-72
2023/06/24 05:48:57;;;;;;;15.43;9.38;;;19.10;99.90;;;;;;5028564;28;20029;-72
2023/06/24 05:51:23;;;;;;;17.63;10.60;;;19.10;99.90;;;;;;5023377;28;20036;-72
2023/06/24 05:53:49;;;;;;;15.85;10.10;;;19.20;99.90;;;;;;5025358;28;20133;-72
2023/06/24 05:56:14;;;;;;;19.75;10.32;;;19.20;99.90;;;;;;5023475;28;20025;-72
2023/06/24 05:58:40;;;;;;;16.23;10.20;;;19.20;99.90;;;;;;5021165;28;20049;-73
2023/06/24 06:01:07;;;;;;;16.77;9.75;;;19.20;99.90;;;;;;5027844;28;20026;-73
2023/06/24 06:03:33;;;;;;;20.85;10.52;;;19.20;99.90;;;;;;5021665;28;20021;-73
2023/06/24 06:05:58;;;;;;;16.25;9.85;;;19.30;99.90;;;;;;5019123;28;20453;-73
2023/06/24 06:08:24;;;;;;;23.92;10.15;;;19.30;99.90;;;;;;5020545;28;20025;-73
2023/06/24 06:10:50;;;;;;;19.77;9.98;;;19.40;99.90;;;;;;5024787;28;20362;-73
2023/06/24 06:13:15;;;;;;;19.85;10.38;;;19.40;99.90;;;;;;5028074;28;20064;-73
2023/06/24 06:15:41;;;;;;;16.70;10.30;;;19.40;99.90;;;;;;5025683;28;20076;-73
2023/06/24 06:18:06;;;;;;;20.88;11.02;;;19.50;99.90;;;;;;5029745;28;20021;-73
2023/06/24 06:20:32;;;;;;;18.30;10.88;;;19.50;99.90;;;;;;5030505;28;20504;-73
2023/06/24 06:22:58;;;;;;;20.02;10.95;;;19.60;99.90;;;;;;5033967;28;20029;-72
2023/06/24 06:25:23;;;;;;;21.25;10.98;;;19.60;99.90;;;;;;5027056;28;20076;-74
2023/06/24 06:27:49;;;;;;;17.50;11.27;;;19.60;99.90;;;;;;5029718;28;20026;-74
2023/06/24 06:30:15;;;;;;;22.45;11.35;;;19.70;99.90;;;;;;5031620;28;20018;-74
2023/06/24 06:32:41;;;;;;;18.40;11.00;;;19.70;99.90;;;;;;5033090;28;20026;-74
2023/06/24 06:35:08;;;;;;;18.25;10.95;;;19.80;99.90;;;;;;5032129;28;20033;-74
2023/06/24 06:37:33;;;;;;;19.42;10.40;;;19.80;99.90;;;;;;5032039;28;20049;-74
2023/06/24 06:39:59;;;;;;;20.60;11.60;;;19.90;99.90;;;;;;5024137;28;20056;-74
2023/06/24 06:42:25;;;;;;;22.30;11.57;;;20.00;99.90;;;;;;5025691;28;20021;-74
2023/06/24 06:44:50;;;;;;;17.52;10.20;;;20.00;99.90;;;;;;5028710;28;20029;-74
2023/06/24 06:47:16;;;;;;;17.20;10.77;;;20.10;99.90;;;;;;5019133;28;20100;-75
2023/06/24 06:49:42;;;;;;;17.90;10.80;;;20.20;99.90;;;;;;5027921;28;20025;-73
2023/06/24 06:52:08;;;;;;;19.48;11.30;;;20.30;99.90;;;;;;5023066;28;20022;-74
2023/06/24 06:54:33;;;;;;;20.05;10.77;;;20.40;99.90;;;;;;5025224;28;20041;-74
2023/06/24 06:57:03;;;;;;;16.48;10.52;;;20.50;99.90;;;;;;5027283;28;20022;-74
2023/06/24 06:59:32;;;;;;;17.60;11.27;;;20.60;99.90;;;;;;5028663;28;20026;-75
2023/06/24 07:01:58;;;;;;;20.73;10.90;;;20.60;99.90;;;;;;5033239;28;20028;-74
2023/06/24 07:04:23;;;;;;;18.67;11.15;;;20.70;99.90;;;;;;5022821;28;20101;-74
2023/06/24 07:06:49;;;;;;;18.35;10.60;;;20.80;99.90;;;;;;5030402;28;20076;-75
2023/06/24 07:09:15;;;;;;;20.25;11.25;;;20.90;99.90;;;;;;5020533;28;20025;-74
2023/06/24 07:11:41;;;;;;;17.58;11.13;;;21.00;99.90;;;;;;5030276;28;20030;-75
2023/06/24 07:14:07;;;;;;;15.98;11.10;;;21.10;99.90;;;;;;5034324;28;20101;-74
2023/06/24 07:16:33;;;;;;;16.75;11.18;;;21.20;99.90;;;;;;5034001;28;20547;-74
2023/06/24 07:18:59;;;;;;;18.58;10.10;;;21.30;99.90;;;;;;5028631;28;20025;-74
2023/06/24 07:21:24;;;;;;;17.02;10.85;;;21.30;99.90;;;;;;5013457;28;20032;-75
2023/06/24 07:23:50;;;;;;;15.50;10.63;;;21.40;99.90;;;;;;5024112;28;20026;-75
2023/06/24 07:26:15;;;;;;;19.52;11.60;;;21.50;99.90;;;;;;5033853;28;20045;-75
2023/06/24 07:28:41;;;;;;;18.60;10.90;;;21.70;99.90;;;;;;5018466;28;20022;-75
2023/06/24 07:31:07;;;;;;;16.30;10.23;;;21.80;99.90;;;;;;5028603;28;20025;-75
2023/06/24 07:33:33;;;;;;;20.90;11.77;;;21.90;99.90;;;;;;5034051;28;20052;-74
2023/06/24 07:35:58;;;;;;;18.67;10.35;;;22.00;99.90;;;;;;5029423;28;20068;-75
2023/06/24 07:38:24;;;;;;;21.70;11.95;;;22.10;99.90;;;;;;5016303;28;20020;-74
2023/06/24 07:40:50;;;;;;;19.55;11.38;;;22.30;99.90;;;;;;5020196;28;20075;-75
2023/06/24 07:43:15;;;;;;;17.67;10.27;;;22.40;99.90;;;;;;5027379;28;20439;-74
2023/06/24 07:45:41;;;;;;;17.67;9.73;;;22.60;99.90;;;;;;5025357;28;20027;-74
2023/06/24 07:48:07;;;;;;;15.00;10.23;;;22.70;99.90;;;;;;5033974;28;20021;-75
2023/06/24 07:50:34;;;;;;;16.80;10.45;;;22.80;99.90;;;;;;5034749;28;20037;-74
2023/06/24 07:53:00;;;;;;;23.35;11.15;;;23.00;99.90;;;;;;5034012;28;20033;-74
2023/06/24 07:55:26;;;;;;;19.00;11.23;;;23.10;99.90;;;;;;5025604;28;20372;-74
2023/06/24 07:57:51;;;;;;;18.10;10.18;;;23.20;99.90;;;;;;5017798;28;20026;-73
2023/06/24 08:00:17;;;;;;;18.20;11.27;;;23.40;99.90;;;;;;5033510;28;20024;-74
2023/06/24 08:02:43;;;;;;;17.85;11.02;;;23.50;99.90;;;;;;5029584;28;20025;-74
2023/06/24 08:05:09;;;;;;;17.75;10.88;;;23.60;99.90;;;;;;5033514;28;20079;-74
2023/06/24 08:07:35;;;;;;;21.05;11.30;;;23.70;99.90;;;;;;5029312;28;20346;-74
2023/06/24 08:10:01;;;;;;;20.30;10.70;;;23.80;99.90;;;;;;5028946;28;20492;-73
2023/06/24 08:12:26;;;;;;;16.35;9.98;;;23.90;99.90;;;;;;5025310;28;20022;-73
2023/06/24 08:14:52;;;;;;;19.05;10.63;;;24.00;99.90;;;;;;5032003;28;20475;-73
2023/06/24 08:17:18;;;;;;;19.63;10.43;;;24.20;99.90;;;;;;5032990;28;20041;-74
2023/06/24 08:19:43;;;;;;;15.63;9.63;;;24.20;99.90;;;;;;5033013;28;20025;-74
2023/06/24 08:22:09;;;;;;;18.27;9.63;;;24.40;99.90;;;;;;5021649;28;20085;-74
2023/06/24 08:24:36;;;;;;;17.15;10.05;;;24.60;99.90;;;;;;5031567;28;20029;-74
2023/06/24 08:27:01;;;;;;;17.48;9.30;;;24.80;99.90;;;;;;5032423;28;20029;-74
2023/06/24 08:29:27;;;;;;;18.55;9.60;;;24.90;99.90;;;;;;5028662;28;20051;-74
2023/06/24 08:31:53;;;;;;;14.95;9.60;;;25.00;99.90;;;;;;5031411;28;20040;-74
2023/06/24 08:34:18;;;;;;;20.42;10.43;;;25.10;99.90;;;;;;5030875;28;20038;-74
2023/06/24 08:36:44;;;;;;;18.02;10.40;;;25.30;99.90;;;;;;5030873;28;20029;-74
2023/06/24 08:39:09;;;;;;;18.10;9.15;;;25.40;99.90;;;;;;5031967;28;20025;-74
2023/06/24 08:41:35;;;;;;;17.88;10.60;;;25.40;99.90;;;;;;5032510;28;20025;-74
2023/06/24 08:44:00;;;;;;;15.68;9.95;;;25.60;99.90;;;;;;5031212;28;20033;-74
2023/06/24 08:46:27;;;;;;;16.05;10.15;;;25.70;99.90;;;;;;5032345;28;20017;-74
2023/06/24 08:49:06;;;;;;;17.75;9.95;;;25.80;99.90;;;;;;5032612;28;20032;-74
2023/06/24 08:51:39;;;;;;;17.83;10.32;;;25.90;99.90;;;;;;5032196;28;20656;-74
2023/06/24 08:54:09;;;;;;;16.35;10.25;;;26.00;99.90;;;;;;5031889;28;20421;-74
2023/06/24 08:56:34;;;;;;;15.65;9.50;;;26.10;99.90;;;;;;5020150;28;20018;-74
2023/06/24 08:59:01;;;;;;;13.90;9.25;;;26.10;99.90;;;;;;5032520;28;20025;-74
2023/06/24 09:01:27;;;;;;;19.15;10.77;;;26.20;99.90;;;;;;5024601;28;20495;-74
2023/06/24 09:03:53;;;;;;;14.68;8.93;;;26.30;99.90;;;;;;5032317;28;20502;-74
2023/06/24 09:06:18;;;;;;;18.67;10.43;;;26.40;99.90;;;;;;5032289;28;20100;-74
2023/06/24 09:08:56;;;;;;;17.42;9.18;;;26.40;99.90;;;;;;5027747;28;20462;-74
2023/06/24 09:11:27;;;;;;;17.02;9.45;;;26.50;99.90;;;;;;5021352;28;20492;-74
2023/06/24 09:13:59;;;;;;;15.30;9.05;;;26.70;99.90;;;;;;5029244;28;20057;-74
2023/06/24 09:16:26;;;;;;;16.13;9.40;;;26.80;99.90;;;;;;5032158;28;20061;-74
2023/06/24 09:18:53;;;;;;;15.10;9.82;;;27.00;99.90;;;;;;5031483;28;20048;-74
2023/06/24 09:21:24;;;;;;;17.10;9.70;;;27.10;99.90;;;;;;5020674;28;20153;-74
2023/06/24 09:23:54;;;;;;;14.88;9.90;;;27.20;99.90;;;;;;5029933;28;20043;-74
2023/06/24 09:26:24;;;;;;;17.83;10.45;;;27.30;99.90;;;;;;5021675;28;20022;-74
2023/06/24 09:28:50;;;;;;;19.58;10.23;;;27.40;99.90;;;;;;5019190;28;20014;-74
2023/06/24 09:31:18;;;;;;;17.13;10.30;;;27.50;99.90;;;;;;5018195;28;20152;-74
2023/06/24 09:33:44;;;;;;;14.00;10.02;;;27.70;99.90;;;;;;5027882;28;20069;-74
2023/06/24 09:36:14;;;;;;;17.08;10.18;;;27.70;99.90;;;;;;5031766;28;20025;-74
2023/06/24 09:38:44;;;;;;;14.30;10.13;;;27.80;99.50;;;;;;5021637;28;20060;-75
2023/06/24 09:41:10;;;;;;;15.07;9.15;;;27.80;99.20;;;;;;5031447;28;20484;-74
2023/06/24 09:43:37;;;;;;;15.38;9.20;;;27.90;99.00;;;;;;5030424;28;20101;-74
2023/06/24 09:46:06;;;;;;;15.23;9.43;;;27.90;98.60;;;;;;5031326;28;20452;-74
2023/06/24 09:48:35;;;;;;;16.17;9.68;;;27.90;97.70;;;;;;5031588;28;20361;-74
2023/06/24 09:51:03;;;;;;;14.43;8.32;;;27.90;97.80;;;;;;5031505;28;20097;-74
2023/06/24 09:53:34;;;;;;;14.32;9.20;;;28.00;97.70;;;;;;5031032;28;20096;-74
2023/06/24 09:56:04;;;;;;;14.82;8.90;;;28.10;97.10;;;;;;5031226;28;20071;-74
2023/06/24 09:58:35;;;;;;;13.75;8.00;;;28.30;96.40;;;;;;5026378;28;20053;-74
2023/06/24 10:01:05;;;;;;;14.05;9.60;;;28.30;96.00;;;;;;5028642;28;20452;-74
2023/06/24 10:03:34;;;;;;;16.88;8.98;;;28.30;95.30;;;;;;5024170;28;20028;-74
2023/06/24 10:06:01;;;;;;;13.63;8.52;;;28.20;94.80;;;;;;5031727;28;20484;-74
2023/06/24 10:08:28;;;;;;;15.93;7.45;;;28.20;94.60;;;;;;5022794;28;20033;-76
2023/06/24 10:10:54;;;;;;;17.05;8.20;;;28.30;94.60;;;;;;5025073;28;20030;-74
2023/06/24 10:13:20;;;;;;;12.95;8.20;;;28.40;94.40;;;;;;5025837;28;20093;-75
2023/06/24 10:15:45;;;;;;;13.70;8.75;;;28.50;94.00;;;;;;5030233;28;20034;-75
2023/06/24 10:18:35;;;;;;;13.13;8.13;;;28.50;93.90;;;;;;5031373;28;20071;-75
2023/06/24 10:21:02;;;;;;;15.60;8.85;;;28.50;93.50;;;;;;5026584;28;20029;-75
2023/06/24 10:23:41;;;;;;;14.70;8.35;;;28.50;93.50;;;;;;5031286;28;20365;-74
2023/06/24 10:26:11;;;;;;;14.93;8.15;;;28.40;93.10;;;;;;5031794;28;20029;-74
2023/06/24 10:29:07;;;;;;;14.27;8.25;;;28.30;93.10;;;;;;5020407;28;20022;-74
2023/06/24 10:31:44;;;;;;;11.45;7.75;;;28.40;93.10;;;;;;5017995;28;20022;-74
2023/06/24 10:34:19;;;;;;;9.70;6.28;;;28.40;92.70;;;;;;5016710;28;20061;-74
2023/06/24 10:36:58;;;;;;;10.88;6.50;;;28.40;92.40;;;;;;5028805;28;20025;-74
2023/06/24 10:39:36;;;;;;;13.90;6.88;;;28.50;91.90;;;;;;5025337;28;20037;-74
2023/06/24 10:42:23;;;;;;;13.52;6.70;;;28.60;91.40;;;;;;5022895;28;20022;-73
2023/06/24 10:44:50;;;;;;;11.63;7.35;;;28.70;91.00;;;;;;5028808;28;20071;-74
2023/06/24 10:47:17;;;;;;;10.68;6.35;;;28.80;90.80;;;;;;5020841;28;20025;-73
2023/06/24 10:49:42;;;;;;;16.30;6.72;;;28.90;90.70;;;;;;5021801;28;20072;-73
2023/06/24 10:52:09;;;;;;;14.15;7.30;;;29.00;90.10;;;;;;5029861;28;20132;-73
2023/06/24 10:54:40;;;;;;;13.27;7.13;;;29.20;89.10;;;;;;5028717;28;20476;-74
2023/06/24 10:57:07;;;;;;;12.02;6.25;;;29.30;88.20;;;;;;5024708;28;20037;-73
2023/06/24 10:59:39;;;;;;;10.57;6.32;;;29.30;87.40;;;;;;5032492;28;20015;-73
2023/06/24 11:02:05;;;;;;;12.45;7.22;;;29.50;86.40;;;;;;5021709;28;20025;-73
2023/06/24 11:04:30;;;;;;;12.57;6.78;;;29.60;86.90;;;;;;5034479;28;20022;-73
2023/06/24 11:07:00;;;;;;;9.10;6.50;;;29.70;86.40;;;;;;5034208;28;20072;-75
2023/06/24 11:09:26;;;;;;;11.13;7.25;;;29.70;85.60;;;;;;5034188;28;20025;-73
2023/06/24 11:11:52;;;;;;;12.25;6.55;;;29.70;85.60;;;;;;5034614;28;20017;-73
2023/06/24 11:14:21;;;;;;;12.25;6.88;;;29.60;85.60;;;;;;5033991;28;20063;-73
2023/06/24 11:16:46;;;;;;;17.55;6.57;;;29.50;85.60;;;;;;5030683;28;20026;-73
2023/06/24 11:19:12;;;;;;;9.60;6.15;;;29.50;85.20;;;;;;5031483;28;20036;-73
2023/06/24 11:21:38;;;;;;;10.23;6.38;;;29.50;83.90;;;;;;5028324;28;20029;-74
2023/06/24 11:24:04;;;;;;;12.65;6.50;;;29.50;83.90;;;;;;5028209;28;20035;-73
2023/06/24 11:26:29;;;;;;;11.00;6.82;;;29.60;83.10;;;;;;5030597;28;20472;-73
2023/06/24 11:28:55;;;;;;;10.30;7.35;;;29.60;83.90;;;;;;5028723;28;20021;-73
2023/06/24 11:31:27;;;;;;;12.20;7.22;;;29.80;83.40;;;;;;5029519;28;20105;-72
2023/06/24 11:33:53;;;;;;;11.30;6.78;;;29.90;83.00;;;;;;5033820;28;20037;-72
2023/06/24 11:36:22;;;;;;;56.20;8.93;;;30.00;82.90;;;;;;5033275;28;20018;-73
2023/06/24 11:38:48;;;;;;;12.18;7.55;;;30.00;82.10;;;;;;5028289;28;20396;-72
2023/06/24 11:41:14;;;;;;;11.48;6.63;;;30.00;82.40;;;;;;5031798;28;20018;-72
2023/06/24 11:43:47;;;;;;;14.18;6.28;;;29.90;82.20;;;;;;5033403;28;20140;-73
2023/06/24 11:46:26;;;;;;;11.00;7.03;;;29.90;81.40;;;;;;5024967;28;20024;-71
2023/06/24 11:48:52;;;;;;;12.30;6.70;;;29.90;81.40;;;;;;5020419;28;20432;-72
2023/06/24 11:51:19;;;;;;;13.02;6.63;;;29.80;81.50;;;;;;5024475;28;20028;-73
2023/06/24 11:53:48;;;;;;;11.25;6.35;;;29.80;81.60;;;;;;5031879;28;20156;-73
2023/06/24 11:56:14;;;;;;;11.90;6.10;;;29.80;81.50;;;;;;5033753;28;20036;-73
2023/06/24 11:58:40;;;;;;;12.95;6.72;;;29.80;80.70;;;;;;5027738;28;20027;-73
2023/06/24 12:01:08;;;;;;;9.52;5.85;;;29.90;79.70;;;;;;5033716;28;20365;-72
2023/06/24 12:03:34;;;;;;;14.38;6.28;;;30.10;78.50;;;;;;5028837;28;20090;-72
2023/06/24 12:06:00;;;;;;;11.32;6.30;;;30.20;77.80;;;;;;5034957;28;20349;-72
2023/06/24 12:08:26;;;;;;;10.45;6.63;;;30.30;77.30;;;;;;5034558;28;20095;-72
2023/06/24 12:10:52;;;;;;;14.40;6.53;;;30.30;76.50;;;;;;5032519;28;20040;-72
2023/06/24 12:13:18;;;;;;;14.60;6.65;;;30.40;75.90;;;;;;5032802;28;20025;-72
2023/06/24 12:15:44;;;;;;;13.10;7.70;;;30.40;75.70;;;;;;5033058;28;20041;-72
2023/06/24 12:18:11;;;;;;;11.93;7.68;;;30.40;75.80;;;;;;5033211;28;20081;-71
2023/06/24 12:20:37;;;;;;;10.30;7.45;;;30.40;75.60;;;;;;5035448;28;20022;-71
2023/06/24 12:23:05;;;;;;;13.52;6.40;;;30.40;75.60;;;;;;5032115;28;20017;-74
2023/06/24 12:25:32;;;;;;;15.35;7.18;;;30.50;75.40;;;;;;5030258;28;20029;-73
2023/06/24 12:27:59;;;;;;;18.98;7.07;;;30.60;74.60;;;;;;5030387;28;20052;-73
2023/06/24 12:30:25;;;;;;;11.98;6.97;;;30.70;74.40;;;;;;5032266;28;20040;-73
2023/06/24 12:32:51;;;;;;;13.27;7.22;;;30.70;74.40;;;;;;5033584;28;20018;-74
2023/06/24 12:35:17;;;;;;;17.15;9.07;;;30.80;75.00;;;;;;5027028;28;20465;-74
2023/06/24 12:37:45;;;;;;;14.45;7.97;;;30.80;74.10;;;;;;5029163;28;20036;-74
2023/06/24 12:40:10;;;;;;;15.80;8.07;;;30.90;73.60;;;;;;5025775;28;20032;-73